Time;durP1;ratioP1;P1;durP2;ratioP2;P2;SDS_P1;SDS_P2;PMS_P1;PMS_P2;Temp;Humidity;BMP_temperature;BMP_pressure;BME280_temperature;BME280_humidity;BME280_pressure;Samples;Min_cycle;Max_cycle;Signal;HPM_P1;HPM_P2
2022/12/28 00:02:24;;;;;;;7.60;2.97;;;;;;;6.82;100.00;101691.38;5212979;28;20585;-82
2022/12/28 00:04:55;;;;;;;6.75;3.30;;;;;;;6.85;100.00;101684.00;5213025;28;20061;-82
2022/12/28 00:07:25;;;;;;;5.78;3.30;;;;;;;6.87;100.00;101670.53;5213458;28;20107;-82
2022/12/28 00:09:56;;;;;;;12.13;3.40;;;;;;;6.89;100.00;101671.28;5213692;28;20029;-81
2022/12/28 00:12:26;;;;;;;6.57;3.17;;;;;;;6.91;100.00;101663.97;5212775;28;20021;-81
2022/12/28 00:14:56;;;;;;;9.10;3.40;;;;;;;6.89;100.00;101647.25;5214214;28;20051;-81
2022/12/28 00:17:27;;;;;;;9.95;3.35;;;;;;;6.88;100.00;101650.91;5213636;28;20504;-82
2022/12/28 00:19:58;;;;;;;9.88;3.42;;;;;;;6.85;100.00;101649.31;5223894;28;20551;-81
2022/12/28 00:22:28;;;;;;;6.03;3.75;;;;;;;6.87;100.00;101651.84;5212722;28;20079;-81
2022/12/28 00:24:59;;;;;;;9.20;3.03;;;;;;;6.95;100.00;101641.44;5214180;28;20088;-82
2022/12/28 00:27:29;;;;;;;4.25;2.85;;;;;;;6.97;100.00;101636.81;5214484;28;20021;-82
2022/12/28 00:30:00;;;;;;;10.68;3.15;;;;;;;6.99;100.00;101635.72;5213973;28;20036;-81
2022/12/28 00:32:30;;;;;;;6.68;3.20;;;;;;;7.06;100.00;101645.91;5209000;28;20025;-82
2022/12/28 00:35:01;;;;;;;10.38;3.42;;;;;;;7.10;100.00;101634.00;5205883;28;20076;-81
2022/12/28 00:37:32;;;;;;;11.15;3.78;;;;;;;7.14;100.00;101625.63;5206382;28;20025;-82
2022/12/28 00:40:02;;;;;;;10.85;3.72;;;;;;;7.25;100.00;101624.75;5207068;28;20466;-82
2022/12/28 00:42:33;;;;;;;7.90;3.33;;;;;;;7.21;100.00;101615.28;5206325;28;20037;-81
2022/12/28 00:45:04;;;;;;;12.27;3.33;;;;;;;7.26;100.00;101605.94;5207761;28;20461;-80
2022/12/28 00:47:34;;;;;;;6.25;3.28;;;;;;;7.32;100.00;101606.41;5204868;28;20037;-82
2022/12/28 00:50:05;;;;;;;8.00;3.40;;;;;;;7.31;100.00;101600.22;5206424;28;20099;-81
2022/12/28 00:52:36;;;;;;;8.48;3.50;;;;;;;7.29;100.00;101593.31;5205768;28;20025;-82
2022/12/28 00:55:07;;;;;;;9.52;3.33;;;;;;;7.33;100.00;101598.28;5206612;28;20478;-82
2022/12/28 00:57:39;;;;;;;7.25;3.38;;;;;;;7.35;100.00;101590.97;5207299;28;20087;-81
2022/12/28 01:00:11;;;;;;;10.10;3.30;;;;;;;7.34;100.00;101593.78;5206323;28;20021;-82
2022/12/28 01:02:41;;;;;;;6.45;3.03;;;;;;;7.35;100.00;101598.16;5208072;28;20406;-81
2022/12/28 01:05:12;;;;;;;8.05;3.10;;;;;;;7.36;100.00;101587.34;5206304;28;20032;-81
2022/12/28 01:07:42;;;;;;;7.50;3.20;;;;;;;7.40;100.00;101570.09;5207778;28;20040;-81
2022/12/28 01:10:12;;;;;;;7.18;2.88;;;;;;;7.41;100.00;101579.78;5206825;28;20021;-81
2022/12/28 01:12:43;;;;;;;7.80;2.80;;;;;;;7.43;100.00;101569.84;5206915;28;20037;-82
2022/12/28 01:15:13;;;;;;;8.65;3.00;;;;;;;7.42;100.00;101570.81;5207330;28;20029;-82
2022/12/28 01:17:44;;;;;;;11.43;3.60;;;;;;;7.44;100.00;101571.53;5207519;28;20040;-81
2022/12/28 01:20:14;;;;;;;9.68;3.15;;;;;;;7.47;100.00;101570.41;5220587;28;20505;-82
2022/12/28 01:22:45;;;;;;;8.73;3.30;;;;;;;7.50;100.00;101572.84;5206716;28;20379;-81
2022/12/28 01:25:16;;;;;;;6.82;3.03;;;;;;;7.48;100.00;101567.66;5206282;28;20030;-82
2022/12/28 01:27:46;;;;;;;5.18;2.90;;;;;;;7.48;100.00;101561.44;5206435;28;20048;-81
2022/12/28 01:30:17;;;;;;;8.88;3.60;;;;;;;7.51;100.00;101553.16;5204943;28;20076;-82
2022/12/28 01:32:47;;;;;;;6.40;3.03;;;;;;;7.53;100.00;101551.25;5206524;28;20029;-82
2022/12/28 01:35:18;;;;;;;8.23;3.67;;;;;;;7.53;100.00;101549.41;5206520;28;20116;-82
2022/12/28 01:37:48;;;;;;;8.18;3.30;;;;;;;7.55;100.00;101548.44;5205687;28;20618;-83
2022/12/28 01:40:19;;;;;;;7.88;2.88;;;;;;;7.62;100.00;101541.56;5206497;28;20025;-81
2022/12/28 01:42:49;;;;;;;9.13;3.10;;;;;;;7.58;100.00;101533.00;5206738;28;20079;-82
2022/12/28 01:45:21;;;;;;;10.18;3.50;;;;;;;7.62;100.00;101518.38;5205851;28;20088;-82
2022/12/28 01:47:54;;;;;;;12.23;3.50;;;;;;;7.66;100.00;101514.47;5207004;28;20025;-82
2022/12/28 01:50:28;;;;;;;13.13;3.50;;;;;;;7.66;100.00;101513.63;5205761;28;20029;-82
2022/12/28 01:53:02;;;;;;;8.05;4.63;;;;;;;7.62;100.00;101512.22;5205918;28;20017;-82
2022/12/28 01:55:38;;;;;;;10.43;3.38;;;;;;;7.66;100.00;101517.16;5207336;28;20018;-81
2022/12/28 01:58:11;;;;;;;;;;;;;;;7.65;100.00;101509.28;5206649;28;20520;-82
2022/12/28 02:00:41;;;;;;;7.72;3.35;;;;;;;7.70;100.00;101504.41;5206181;28;19909;-82
2022/12/28 02:03:17;;;;;;;6.10;3.47;;;;;;;7.73;100.00;101496.09;5207753;28;20032;-82
2022/12/28 02:05:51;;;;;;;6.93;4.00;;;;;;;7.77;100.00;101500.22;5206976;28;20025;-82
2022/12/28 02:08:55;;;;;;;11.75;4.20;;;;;;;7.79;100.00;101492.94;5209376;28;20033;-79
2022/12/28 02:11:25;;;;;;;7.00;3.45;;;;;;;7.79;100.00;101499.13;5218142;28;20032;-81
2022/12/28 02:13:57;;;;;;;9.82;3.80;;;;;;;7.76;100.00;101488.69;5218303;28;20084;-79
2022/12/28 02:16:28;;;;;;;11.18;4.38;;;;;;;7.74;100.00;101484.47;5218019;28;20025;-80
2022/12/28 02:18:58;;;;;;;8.27;4.38;;;;;;;7.70;100.00;101491.88;5222750;28;20150;-81
2022/12/28 02:21:32;;;;;;;9.18;3.45;;;;;;;7.68;100.00;101477.81;5220014;28;20044;-80
2022/12/28 02:24:44;;;;;;;8.73;4.10;;;;;;;7.67;100.00;101480.59;5211802;28;20108;-80
2022/12/28 02:27:35;;;;;;;7.93;3.92;;;;;;;7.71;100.00;101469.53;5113539;29;20031;-80
2022/12/28 02:30:08;;;;;;;8.85;4.10;;;;;;;7.76;100.00;101479.81;5111640;29;20038;-82
2022/12/28 02:33:17;;;;;;;11.93;4.10;;;;;;;7.78;100.00;101468.03;5186497;28;20036;-82
2022/12/28 02:35:58;;;;;;;7.28;4.13;;;;;;;7.77;100.00;101460.13;5212308;28;20280;-83
2022/12/28 02:38:55;;;;;;;9.45;4.10;;;;;;;7.75;100.00;101444.25;5211996;28;20064;-82
2022/12/28 02:41:25;;;;;;;13.02;4.57;;;;;;;7.73;100.00;101443.56;5203619;28;20045;-82
2022/12/28 02:43:58;;;;;;;13.00;4.38;;;;;;;7.69;100.00;101444.81;5210917;28;20026;-81
2022/12/28 02:52:30;;;;;;;7.82;3.90;;;;;;;7.66;100.00;101422.84;5212313;28;20551;-81
2022/12/28 02:58:56;;;;;;;7.75;4.53;;;;;;;7.78;100.00;101438.66;5213091;28;20431;-81
2022/12/28 03:02:02;;;;;;;6.85;3.70;;;;;;;7.85;100.00;101419.41;5211237;28;20087;-81
2022/12/28 03:04:59;;;;;;;8.80;3.72;;;;;;;7.86;100.00;101421.94;5212345;28;20056;-81
2022/12/28 03:08:18;;;;;;;8.85;4.15;;;;;;;7.96;100.00;101417.47;5219044;28;20025;-81
2022/12/28 03:11:13;;;;;;;10.50;3.83;;;;;;;8.00;100.00;101410.91;5204897;28;20025;-81
2022/12/28 03:13:55;;;;;;;10.57;3.70;;;;;;;8.01;100.00;101407.22;5218635;28;20047;-80
2022/12/28 03:25:41;;;;;;;8.45;3.42;;;;;;;8.04;100.00;101404.31;5209701;28;20036;-80
2022/12/28 03:31:19;;;;;;;10.55;3.50;;;;;;;8.21;100.00;101377.88;5211199;28;20398;-81
2022/12/28 03:33:52;;;;;;;7.38;3.40;;;;;;;8.21;100.00;101368.03;5210766;28;20055;-81
2022/12/28 03:37:14;;;;;;;8.55;3.40;;;;;;;8.28;100.00;101374.53;5210779;28;20091;-81
2022/12/28 03:40:22;;;;;;;9.05;3.20;;;;;;;8.29;100.00;101388.75;5156198;28;20117;-81
2022/12/28 03:45:56;;;;;;;8.65;3.70;;;;;;;8.25;100.00;101374.81;5211770;28;20083;-81
2022/12/28 03:48:27;;;;;;;7.13;3.10;;;;;;;8.31;100.00;101381.41;5212174;28;20486;-81
2022/12/28 03:50:58;;;;;;;13.20;3.55;;;;;;;8.27;100.00;101374.66;5210623;28;20074;-81
2022/12/28 03:53:41;;;;;;;7.75;3.30;;;;;;;8.31;100.00;101365.38;5210108;28;20041;-81
2022/12/28 03:56:15;;;;;;;4.45;2.65;;;;;;;8.31;100.00;101355.53;5210107;28;20102;-81
2022/12/28 03:58:46;;;;;;;4.93;2.80;;;;;;;8.31;100.00;101363.56;5210612;28;20029;-82
2022/12/28 04:01:17;;;;;;;10.18;3.17;;;;;;;8.31;100.00;101358.22;5210446;28;20033;-81
2022/12/28 04:03:47;;;;;;;7.90;3.60;;;;;;;8.29;100.00;101351.31;5210383;28;20072;-82
2022/12/28 04:06:18;;;;;;;8.05;3.45;;;;;;;8.25;100.00;101364.13;5210778;28;20432;-82
2022/12/28 04:08:49;;;;;;;8.75;3.25;;;;;;;8.21;100.00;101369.88;5210581;28;20032;-82
2022/12/28 04:11:19;;;;;;;9.75;3.50;;;;;;;8.16;100.00;101366.78;5211687;28;20018;-84
2022/12/28 04:13:50;;;;;;;6.72;3.33;;;;;;;8.11;100.00;101347.63;5210626;28;20036;-84
2022/12/28 04:16:20;;;;;;;6.22;3.42;;;;;;;8.08;100.00;101343.38;5210547;28;20026;-81
2022/12/28 04:18:51;;;;;;;9.27;3.33;;;;;;;8.10;100.00;101340.59;5213135;28;20018;-81
2022/12/28 04:21:21;;;;;;;5.60;3.40;;;;;;;8.08;100.00;101342.53;5217815;28;20080;-82
2022/12/28 04:23:52;;;;;;;11.57;3.92;;;;;;;8.12;100.00;101342.13;5214001;28;20158;-81
2022/12/28 04:26:22;;;;;;;11.90;3.72;;;;;;;8.12;100.00;101333.28;5214443;28;20022;-82
2022/12/28 04:28:53;;;;;;;8.48;3.75;;;;;;;8.08;100.00;101331.84;5214997;28;20101;-82
2022/12/28 04:31:23;;;;;;;10.18;4.07;;;;;;;8.01;100.00;101334.25;5214321;28;20057;-81
2022/12/28 04:33:56;;;;;;;15.88;4.70;;;;;;;7.99;100.00;101326.38;5203887;28;20041;-81
2022/12/28 04:36:27;;;;;;;8.75;4.20;;;;;;;8.01;100.00;101337.75;5212795;28;20029;-82
2022/12/28 04:38:58;;;;;;;7.15;4.07;;;;;;;7.98;100.00;101339.84;5214628;28;20033;-81
2022/12/28 04:41:29;;;;;;;11.50;4.65;;;;;;;8.00;100.00;101321.88;5212822;28;20029;-82
2022/12/28 04:43:59;;;;;;;19.65;4.43;;;;;;;7.97;100.00;101324.81;5213723;28;20049;-80
2022/12/28 04:46:30;;;;;;;9.10;4.40;;;;;;;7.94;100.00;101322.44;5215531;28;20021;-81
2022/12/28 04:49:01;;;;;;;10.65;4.50;;;;;;;7.96;100.00;101315.13;5213890;28;20028;-82
2022/12/28 04:51:31;;;;;;;15.77;5.07;;;;;;;8.00;100.00;101325.38;5215016;28;20080;-82
2022/12/28 04:54:02;;;;;;;7.28;4.07;;;;;;;7.94;100.00;101325.09;5214538;28;20022;-82
2022/12/28 04:56:32;;;;;;;13.50;4.70;;;;;;;7.92;100.00;101322.56;5215199;28;20068;-81
2022/12/28 04:59:03;;;;;;;7.00;4.25;;;;;;;7.89;100.00;101322.00;5212939;28;20037;-82
2022/12/28 05:01:33;;;;;;;7.85;3.67;;;;;;;7.88;100.00;101321.16;5215119;28;20548;-81
2022/12/28 05:04:04;;;;;;;8.00;3.70;;;;;;;7.92;100.00;101319.88;5214495;28;20041;-81
2022/12/28 05:06:34;;;;;;;12.23;4.82;;;;;;;7.92;100.00;101317.22;5213713;28;20029;-81
2022/12/28 05:09:05;;;;;;;10.27;3.97;;;;;;;7.94;100.00;101320.59;5213398;28;20116;-81
2022/12/28 05:11:35;;;;;;;15.80;4.40;;;;;;;7.93;100.00;101316.25;5212318;28;20026;-81
2022/12/28 05:14:06;;;;;;;14.48;3.65;;;;;;;7.94;100.00;101336.63;5213761;28;20021;-81
2022/12/28 05:16:36;;;;;;;13.25;5.72;;;;;;;7.97;100.00;101312.28;5212941;28;20037;-81
2022/12/28 05:19:07;;;;;;;9.23;4.05;;;;;;;7.96;100.00;101317.78;5216452;28;20025;-81
2022/12/28 05:21:37;;;;;;;10.30;3.70;;;;;;;8.00;100.00;101330.72;5217240;28;20075;-81
2022/12/28 05:24:08;;;;;;;6.68;4.03;;;;;;;8.00;100.00;101322.72;5214292;28;20045;-82
2022/12/28 05:26:38;;;;;;;6.35;3.60;;;;;;;7.99;100.00;101313.03;5212086;28;20017;-81
2022/12/28 05:29:09;;;;;;;9.25;3.53;;;;;;;8.02;100.00;101318.06;5214550;28;20021;-81
2022/12/28 05:31:39;;;;;;;10.55;3.40;;;;;;;8.07;100.00;101320.34;5213222;28;20033;-81
2022/12/28 05:34:09;;;;;;;8.50;3.88;;;;;;;8.06;100.00;101321.31;5213403;28;20051;-82
2022/12/28 05:36:40;;;;;;;9.90;3.80;;;;;;;8.08;100.00;101321.16;5212884;28;20360;-82
2022/12/28 05:39:10;;;;;;;9.45;3.35;;;;;;;8.10;100.00;101319.22;5212936;28;20048;-82
2022/12/28 05:41:41;;;;;;;16.15;4.35;;;;;;;8.12;100.00;101322.59;5212225;28;20021;-82
2022/12/28 05:44:11;;;;;;;9.50;3.50;;;;;;;8.17;100.00;101320.34;5213108;28;20072;-81
2022/12/28 05:46:42;;;;;;;18.33;8.32;;;;;;;8.22;100.00;101324.28;5213700;28;20445;-82
2022/12/28 05:49:12;;;;;;;11.02;4.75;;;;;;;8.23;100.00;101322.44;5212824;28;20025;-82
2022/12/28 05:51:42;;;;;;;9.65;3.90;;;;;;;8.27;100.00;101321.19;5211779;28;20549;-82
2022/12/28 05:54:13;;;;;;;10.07;2.92;;;;;;;8.27;100.00;101327.38;5212764;28;20029;-82
2022/12/28 05:56:44;;;;;;;10.75;2.95;;;;;;;8.30;100.00;101318.25;5213299;28;20053;-81
2022/12/28 05:59:15;;;;;;;8.18;3.13;;;;;;;8.31;100.00;101317.25;5213596;28;20025;-81
2022/12/28 06:01:45;;;;;;;5.47;2.50;;;;;;;8.33;100.00;101309.94;5212141;28;20079;-81
2022/12/28 06:04:18;;;;;;;6.53;3.08;;;;;;;8.34;100.00;101302.78;5214162;28;20021;-80
2022/12/28 06:06:49;;;;;;;5.40;3.05;;;;;;;8.41;100.00;101299.44;5213747;28;20030;-82
2022/12/28 06:09:19;;;;;;;6.45;3.00;;;;;;;8.42;100.00;101298.44;5213366;28;20021;-82
2022/12/28 06:11:50;;;;;;;7.65;2.72;;;;;;;8.43;100.00;101301.94;5210403;28;20040;-81
2022/12/28 06:14:20;;;;;;;6.28;2.50;;;;;;;8.42;100.00;101293.09;5204380;28;20026;-82
2022/12/28 06:16:51;;;;;;;10.63;2.83;;;;;;;8.47;100.00;101304.19;5205838;28;20029;-82
2022/12/28 06:19:21;;;;;;;7.47;2.33;;;;;;;8.45;100.00;101303.50;5210764;28;20017;-81
2022/12/28 06:21:52;;;;;;;10.43;4.22;;;;;;;8.47;100.00;101304.19;5207582;28;20036;-80
2022/12/28 06:24:22;;;;;;;8.43;2.92;;;;;;;8.48;100.00;101305.91;5205691;28;20025;-81
2022/12/28 06:26:54;;;;;;;7.60;2.20;;;;;;;8.51;100.00;101294.06;5204635;28;20014;-81
2022/12/28 06:29:27;;;;;;;8.55;2.53;;;;;;;8.55;100.00;101292.81;5206228;28;20474;-76
2022/12/28 06:32:00;;;;;;;6.55;2.33;;;;;;;8.52;100.00;101291.25;5205211;28;20108;-78
2022/12/28 06:34:30;;;;;;;4.22;2.13;;;;;;;8.52;100.00;101301.94;5204792;28;20164;-78
2022/12/28 06:37:00;;;;;;;7.50;2.55;;;;;;;8.46;100.00;101293.66;5205099;28;20053;-77
2022/12/28 06:39:31;;;;;;;9.50;2.45;;;;;;;8.46;100.00;101294.50;5205760;28;20083;-81
2022/12/28 06:42:02;;;;;;;6.97;2.40;;;;;;;8.45;100.00;101298.16;5185664;28;20506;-77
2022/12/28 06:44:32;;;;;;;4.65;2.20;;;;;;;8.44;100.00;101291.13;5204945;28;20383;-81
2022/12/28 06:47:02;;;;;;;8.43;2.17;;;;;;;8.44;100.00;101293.81;5204988;28;20026;-79
2022/12/28 06:49:33;;;;;;;12.88;2.85;;;;;;;8.47;100.00;101290.00;5206207;28;20064;-79
2022/12/28 06:52:03;;;;;;;11.48;2.60;;;;;;;8.45;100.00;101290.13;5209494;28;20067;-78
2022/12/28 06:54:34;;;;;;;8.85;2.63;;;;;;;8.46;100.00;101286.47;5209219;28;20034;-81
2022/12/28 06:57:04;;;;;;;8.88;2.15;;;;;;;8.43;100.00;101283.22;5209903;28;20490;-79
2022/12/28 06:59:34;;;;;;;10.65;2.47;;;;;;;8.45;100.00;101271.44;5209886;28;20064;-79
2022/12/28 07:02:05;;;;;;;10.82;2.70;;;;;;;8.53;100.00;101274.25;5211164;28;20112;-80
2022/12/28 07:04:36;;;;;;;8.82;2.78;;;;;;;8.61;100.00;101278.03;5210798;28;20410;-80
2022/12/28 07:07:07;;;;;;;7.45;2.35;;;;;;;8.65;100.00;101272.25;5210269;28;20017;-80
2022/12/28 07:09:38;;;;;;;5.63;2.55;;;;;;;8.67;100.00;101264.91;5211884;28;20381;-80
2022/12/28 07:12:08;;;;;;;9.35;2.70;;;;;;;8.74;100.00;101254.50;5200925;28;20030;-79
2022/12/28 07:14:39;;;;;;;10.43;2.30;;;;;;;8.78;100.00;101254.03;5196324;28;20028;-80
2022/12/28 07:17:10;;;;;;;7.22;2.22;;;;;;;8.89;100.00;101255.72;5209001;28;20740;-80
2022/12/28 07:19:40;;;;;;;7.90;2.22;;;;;;;8.90;100.00;101256.56;5219148;28;20029;-78
2022/12/28 07:22:11;;;;;;;10.82;2.30;;;;;;;8.92;100.00;101236.69;5210622;28;20103;-82
2022/12/28 07:24:41;;;;;;;12.90;2.53;;;;;;;8.97;100.00;101253.16;5209567;28;20025;-82
2022/12/28 07:27:12;;;;;;;17.10;1.98;;;;;;;9.01;100.00;101251.88;5210619;28;20047;-81
2022/12/28 07:29:42;;;;;;;9.52;2.05;;;;;;;9.09;100.00;101245.81;5208232;28;20389;-78
2022/12/28 07:32:12;;;;;;;7.57;2.47;;;;;;;9.12;100.00;101250.00;5207970;28;20041;-78
2022/12/28 07:34:43;;;;;;;13.70;2.53;;;;;;;9.12;100.00;101239.28;5209303;28;20021;-79
2022/12/28 07:37:13;;;;;;;17.35;2.90;;;;;;;9.17;100.00;101242.38;5209449;28;20124;-79
2022/12/28 07:39:44;;;;;;;11.90;2.20;;;;;;;9.21;100.00;101252.63;5209846;28;20106;-79
2022/12/28 07:42:14;;;;;;;9.13;2.10;;;;;;;9.23;100.00;101239.94;5208322;28;20357;-78
2022/12/28 07:44:46;;;;;;;7.18;2.08;;;;;;;9.23;100.00;101239.09;5208151;28;20029;-79
2022/12/28 07:47:17;;;;;;;8.45;2.05;;;;;;;9.27;100.00;101238.66;5209242;28;20072;-78
2022/12/28 07:49:47;;;;;;;10.43;2.10;;;;;;;9.32;100.00;101244.41;5207376;28;20033;-79
2022/12/28 07:52:18;;;;;;;5.00;1.60;;;;;;;9.33;100.00;101239.91;5208587;28;20044;-79
2022/12/28 07:54:48;;;;;;;9.30;2.05;;;;;;;9.29;100.00;101235.84;5207451;28;20025;-79
2022/12/28 07:57:19;;;;;;;3.97;1.77;;;;;;;9.27;100.00;101237.81;5212987;28;20017;-78
2022/12/28 07:59:49;;;;;;;7.18;1.85;;;;;;;9.26;100.00;101236.97;5212855;28;20056;-79
2022/12/28 08:02:19;;;;;;;8.32;1.98;;;;;;;9.21;100.00;101239.25;5210676;28;20025;-81
2022/12/28 08:04:50;;;;;;;9.32;1.73;;;;;;;9.16;100.00;101244.22;5212633;28;20029;-80
2022/12/28 08:07:20;;;;;;;6.28;1.90;;;;;;;9.27;100.00;101235.13;5210557;28;20016;-79
2022/12/28 08:09:51;;;;;;;8.55;1.80;;;;;;;9.26;100.00;101241.50;5211738;28;20029;-80
2022/12/28 08:12:21;;;;;;;4.45;1.67;;;;;;;9.20;100.00;101236.75;5211468;28;20112;-81
2022/12/28 08:14:52;;;;;;;8.48;1.75;;;;;;;9.11;100.00;101248.31;5211882;28;20053;-81
2022/12/28 08:17:22;;;;;;;4.95;1.58;;;;;;;8.98;100.00;101235.25;5212161;28;20028;-81
2022/12/28 08:19:54;;;;;;;5.10;2.67;;;;;;;8.92;100.00;101236.69;5220185;28;20036;-81
2022/12/28 08:22:24;;;;;;;5.40;1.92;;;;;;;8.91;100.00;101228.81;5211944;28;20025;-81
2022/12/28 08:24:55;;;;;;;5.20;1.80;;;;;;;8.91;100.00;101235.00;5211943;28;20172;-81
2022/12/28 08:27:25;;;;;;;9.95;2.33;;;;;;;8.81;100.00;101243.06;5207957;28;20560;-81
2022/12/28 08:29:57;;;;;;;3.83;1.58;;;;;;;8.80;100.00;101245.88;5205244;28;20670;-80
2022/12/28 08:32:28;;;;;;;11.75;4.25;;;;;;;8.75;100.00;101246.31;5206982;28;20013;-81
2022/12/28 08:34:58;;;;;;;5.75;2.15;;;;;;;8.70;100.00;101242.41;5205640;28;20031;-81
2022/12/28 08:37:28;;;;;;;6.70;2.22;;;;;;;8.71;100.00;101241.41;5205500;28;20029;-80
2022/12/28 08:39:59;;;;;;;8.13;2.47;;;;;;;8.68;100.00;101244.34;5205864;28;20106;-80
2022/12/28 08:42:29;;;;;;;9.52;2.10;;;;;;;8.65;100.00;101234.81;5207085;28;20385;-81
2022/12/28 08:45:00;;;;;;;10.43;2.22;;;;;;;8.68;100.00;101239.00;5205683;28;20555;-81
2022/12/28 08:47:30;;;;;;;7.07;2.47;;;;;;;8.72;100.00;101235.06;5207453;28;20474;-81
2022/12/28 08:50:01;;;;;;;8.80;2.90;;;;;;;8.68;100.00;101239.84;5207403;28;20490;-82
2022/12/28 08:52:31;;;;;;;3.75;2.38;;;;;;;8.66;100.00;101230.28;5207349;28;20055;-81
2022/12/28 08:55:01;;;;;;;5.85;2.30;;;;;;;8.54;100.00;101227.78;5207196;28;20036;-79
2022/12/28 08:57:32;;;;;;;10.52;2.95;;;;;;;8.51;100.00;101232.56;5205991;28;20025;-80
2022/12/28 09:00:06;;;;;;;9.50;3.00;;;;;;;8.46;100.00;101233.00;5205726;28;20022;-79
2022/12/28 09:02:36;;;;;;;8.25;2.80;;;;;;;8.46;100.00;101230.31;5207373;28;20033;-80
2022/12/28 09:05:07;;;;;;;10.40;3.58;;;;;;;8.48;100.00;101225.69;5206145;28;20078;-80
2022/12/28 09:07:38;;;;;;;8.43;3.20;;;;;;;8.46;100.00;101224.13;5205283;28;20112;-79
2022/12/28 09:10:08;;;;;;;13.70;3.35;;;;;;;8.47;100.00;101228.50;5207193;28;20026;-79
2022/12/28 09:12:39;;;;;;;8.98;3.45;;;;;;;8.46;100.00;101221.47;5207197;28;20041;-80
2022/12/28 09:15:09;;;;;;;6.70;3.33;;;;;;;8.46;100.00;101216.97;5207165;28;20022;-80
2022/12/28 09:17:40;;;;;;;9.82;3.38;;;;;;;8.52;100.00;101223.56;5207363;28;20061;-79
2022/12/28 09:20:10;;;;;;;8.48;3.17;;;;;;;8.55;100.00;101228.63;5216790;28;20034;-79
2022/12/28 09:22:41;;;;;;;17.63;3.83;;;;;;;8.56;100.00;101225.81;5206303;28;20025;-78
2022/12/28 09:25:11;;;;;;;8.40;3.13;;;;;;;8.53;100.00;101220.75;5206158;28;20033;-78
2022/12/28 09:27:42;;;;;;;8.45;3.20;;;;;;;8.62;100.00;101228.88;5211304;28;20026;-78
2022/12/28 09:30:13;;;;;;;6.95;3.83;;;;;;;8.65;100.00;101236.63;5211778;28;20026;-77
2022/12/28 09:33:57;;;;;;;13.82;3.67;;;;;;;8.67;100.00;101232.81;5207944;28;20072;-78
2022/12/28 09:35:34;;;;;;;8.82;3.40;;;;;;;8.64;100.00;101227.78;5208028;28;20036;-78
2022/12/28 09:38:05;;;;;;;8.90;3.70;;;;;;;8.66;100.00;101222.28;5208018;28;20030;-78
2022/12/28 09:40:37;;;;;;;8.60;3.60;;;;;;;8.67;100.00;101222.13;5205157;28;20474;-78
2022/12/28 09:43:11;;;;;;;7.60;3.83;;;;;;;8.69;100.00;101220.16;5204914;28;20112;-78
2022/12/28 09:45:42;;;;;;;14.57;6.20;;;;;;;8.70;100.00;101227.19;5209709;28;20482;-78
2022/12/28 09:48:18;;;;;;;15.13;4.43;;;;;;;8.68;100.00;101221.13;5211086;28;20021;-78
2022/12/28 09:50:49;;;;;;;9.07;4.13;;;;;;;8.61;100.00;101229.88;5208946;28;20025;-79
2022/12/28 09:53:31;;;;;;;9.90;3.65;;;;;;;8.68;100.00;101231.81;5208268;28;20402;-78
2022/12/28 09:56:27;;;;;;;7.68;4.07;;;;;;;8.68;100.00;101223.78;5210530;28;20049;-79
2022/12/28 09:58:58;;;;;;;9.98;3.63;;;;;;;8.70;100.00;101223.66;5210396;28;20025;-79
2022/12/28 10:01:28;;;;;;;13.57;4.38;;;;;;;8.72;100.00;101219.00;5208894;28;20029;-78
2022/12/28 10:04:00;;;;;;;14.10;4.07;;;;;;;8.78;100.00;101218.41;5210217;28;20044;-80
2022/12/28 10:06:34;;;;;;;9.00;3.80;;;;;;;8.78;100.00;101215.75;5211191;28;20402;-78
2022/12/28 10:09:15;;;;;;;14.68;3.92;;;;;;;8.82;100.00;101215.31;5208766;28;20017;-78
2022/12/28 10:11:46;;;;;;;7.68;3.50;;;;;;;8.83;100.00;101205.44;5209821;28;20025;-77
2022/12/28 10:14:34;;;;;;;9.45;3.25;;;;;;;8.93;100.00;101210.75;5209329;28;20021;-78
2022/12/28 10:17:06;;;;;;;11.00;3.58;;;;;;;8.91;100.00;101207.41;5208562;28;20021;-77
2022/12/28 10:19:37;;;;;;;9.10;2.75;;;;;;;8.92;100.00;101201.06;5216699;28;20029;-77
2022/12/28 10:22:14;;;;;;;10.05;3.00;;;;;;;8.97;100.00;101220.19;5207020;28;20025;-77
2022/12/28 10:24:46;;;;;;;9.90;3.90;;;;;;;8.95;100.00;101206.97;5205673;28;20022;-77
2022/12/28 10:27:28;;;;;;;17.92;3.22;;;;;;;9.03;100.00;101206.22;5206421;28;20454;-77
2022/12/28 10:30:01;;;;;;;6.05;2.92;;;;;;;8.96;100.00;101202.47;5205877;28;20026;-77
2022/12/28 10:32:50;;;;;;;6.28;2.47;;;;;;;8.95;100.00;101208.81;5205819;28;20478;-77
2022/12/28 10:35:27;;;;;;;7.03;2.83;;;;;;;8.99;100.00;101205.69;5193711;28;20474;-77
2022/12/28 10:38:02;;;;;;;13.40;2.60;;;;;;;9.01;100.00;101192.16;5205733;28;20148;-78
2022/12/28 10:40:38;;;;;;;6.93;2.58;;;;;;;9.02;100.00;101200.03;5209542;28;20104;-77
2022/12/28 10:43:20;;;;;;;11.13;2.50;;;;;;;9.01;100.00;101203.69;5207232;28;20108;-77
2022/12/28 10:45:51;;;;;;;9.00;2.50;;;;;;;9.05;100.00;101193.56;5208484;28;20056;-77
2022/12/28 10:48:29;;;;;;;4.93;2.20;;;;;;;9.01;100.00;101182.28;5207314;28;20144;-77
2022/12/28 10:51:10;;;;;;;7.53;2.88;;;;;;;9.03;100.00;101185.66;5206455;28;20112;-78
2022/12/28 10:53:47;;;;;;;6.68;2.22;;;;;;;9.07;100.00;101184.38;5206984;28;20490;-77
2022/12/28 10:56:31;;;;;;;4.50;2.03;;;;;;;9.10;100.00;101185.91;5194395;28;20040;-77
2022/12/28 10:59:14;;;;;;;5.25;2.20;;;;;;;9.10;100.00;101180.56;5207183;28;20021;-77
2022/12/28 11:01:44;;;;;;;4.53;1.83;;;;;;;9.10;100.00;101174.38;5209866;28;20029;-79
2022/12/28 11:04:20;;;;;;;5.18;2.33;;;;;;;9.12;100.00;101167.88;5212518;28;20493;-82
2022/12/28 11:06:54;;;;;;;5.90;2.05;;;;;;;9.08;100.00;101164.63;5206488;28;20052;-80
2022/12/28 11:09:28;;;;;;;4.18;1.65;;;;;;;9.08;100.00;101159.28;5203113;28;20029;-78
2022/12/28 11:12:21;;;;;;;4.10;1.80;;;;;;;9.17;100.00;101148.69;5203746;28;20021;-82
2022/12/28 11:14:53;;;;;;;8.68;2.15;;;;;;;9.18;100.00;101139.66;5202854;28;20021;-80
2022/12/28 11:17:26;;;;;;;10.50;2.50;;;;;;;9.18;100.00;101137.81;5204137;28;20390;-80
2022/12/28 11:20:05;;;;;;;6.30;2.10;;;;;;;9.20;100.00;101126.97;5212390;28;20028;-79
2022/12/28 11:22:36;;;;;;;17.83;2.85;;;;;;;9.22;100.00;101115.13;5203105;28;20398;-79
2022/12/28 11:25:07;;;;;;;8.75;2.38;;;;;;;9.25;100.00;101111.31;5204722;28;20120;-79
2022/12/28 11:27:37;;;;;;;5.25;2.00;;;;;;;9.31;100.00;101108.84;5207011;28;20151;-79
2022/12/28 11:30:16;;;;;;;11.25;2.55;;;;;;;9.40;100.00;101114.31;5206249;28;20025;-79
2022/12/28 11:32:57;;;;;;;11.60;2.95;;;;;;;9.46;100.00;101103.81;5207914;28;20304;-79
2022/12/28 11:35:30;;;;;;;14.02;2.33;;;;;;;9.45;100.00;101086.06;5208122;28;20056;-79
2022/12/28 11:38:04;;;;;;;10.80;2.38;;;;;;;9.54;100.00;101087.00;5208900;28;20022;-79
2022/12/28 11:40:44;;;;;;;8.60;2.00;;;;;;;9.59;100.00;101088.22;5207641;28;20394;-79
2022/12/28 11:43:29;;;;;;;10.73;2.08;;;;;;;9.51;100.00;101082.78;5207485;28;20021;-79
2022/12/28 11:46:01;;;;;;;6.60;2.33;;;;;;;9.53;100.00;101094.16;5208650;28;20041;-79
2022/12/28 11:48:41;;;;;;;7.13;2.25;;;;;;;9.62;100.00;101078.19;5208275;28;20221;-79
2022/12/28 11:51:16;;;;;;;10.82;2.50;;;;;;;9.68;100.00;101066.84;5208693;28;20402;-79
2022/12/28 11:53:47;;;;;;;7.88;1.98;;;;;;;9.61;100.00;101069.31;5208399;28;20026;-79
2022/12/28 11:56:24;;;;;;;9.23;2.40;;;;;;;9.62;100.00;101076.34;5209999;28;20061;-80
2022/12/28 11:58:57;;;;;;;11.23;2.03;;;;;;;9.65;100.00;101061.81;5210814;28;20028;-81
2022/12/28 12:01:32;;;;;;;10.70;3.42;;;;;;;9.67;100.00;101055.28;5208471;28;20284;-81
2022/12/28 12:04:02;;;;;;;10.25;1.85;;;;;;;9.62;100.00;101056.75;5208537;28;20506;-81
2022/12/28 12:06:42;;;;;;;8.27;1.77;;;;;;;9.66;100.00;101047.41;5208281;28;20021;-80
2022/12/28 12:09:24;;;;;;;5.15;1.58;;;;;;;9.65;100.00;101046.56;5209205;28;20555;-81
2022/12/28 12:12:02;;;;;;;9.57;2.50;;;;;;;9.66;100.00;101039.38;5209231;28;20037;-79
2022/12/28 12:14:40;;;;;;;9.85;3.00;;;;;;;9.72;100.00;101036.06;5206781;28;20029;-78
2022/12/28 12:17:23;;;;;;;11.88;3.15;;;;;;;9.70;100.00;101028.19;5209165;28;20029;-79